Airfield :
LOGIN :

Register | Disclaimer

   EN    FR    IT 

 










Legend :    VFR   Marginal VFR   IFR   Intensive IFR   Very Intensive IFR
Visi :
Ceiling :
>= 8 km
>= 3000ft
5 to 8 km
1000 to 3000 ft
1500m to 5 km
500 to 1000 ft
800 to 1500m
200 to 500 ft
< 800m
< 200 ft
Symbols :   Thunderstorms  Fog  Heavy snow  Heavy precipitations  Wind > 20 kt
SIGMETs :     Misc.  Thunderstorms  Icing  Turbulence  Mountain Waves  Volcanic Ashes







- Airport Elevation : 640 ft
- IATA code : AOC


EDAC - Altenburg-Nobitz

CURRENT METAR :
  • 111320Z 30013KT 9999 -DZ BKN016 OVC024 03/01 Q1016

EXPIRED METARs :
  • 111250Z 29013KT 9999 -DZ BKN020 OVC027 04/01 Q1016
  • 111220Z 29014KT 9999 -DZ BKN022 OVC028 04/01 Q1016
  • 111150Z 29013KT 9999 -DZ OVC022 04/01 Q1016

TAF TAF EDAC
Valid from the 11 at 15:00 until the 12 at 00:00 UTC


111400Z 1115/1124 30009KT 9999 SCT015 OVC025
TEMPO 1115/1124 4500 -RA BKN013
No reported NOTAMs for that airfield.
1 SIGMET reported for the München FIR (EDMM) :
 
Severe icing
EDMM SIGMET 1 VALID 111200/111530 EDZM
EDMM MUNCHEN FIR SEV ICE FCST APRX 50NM WID LINE BTN N5131 E01330 - N5045 E01349 1500FT/FL070 MOV SE NC=



MET'MAP, your aeronautical weather chart ! - Copyright ORBIFLY December 2007 - Disclaimer

ORBIFLY MET'MAP TEAM :

Programming & Development : Alexandra Zaïnal
Concept & Development : Baudouin d'Aumeries
Co-Development & Prog : Marc-Olivier Méhu
Technical & hardware support : Manuel Goepfert

Contact : metmap@orbifly.com




SOURCES & CREDITS :

   NOAA